sensor_id;sensor_type;location;lat;lon;timestamp;pressure;altitude;pressure_sealevel;temperature;humidity
34205;BME280;20471;49.680;20.074;2023-02-04T00:00:35;96363.27;;;1.95;83.03
34205;BME280;20471;49.680;20.074;2023-02-04T00:03:24;96360.93;;;1.95;83.15
34205;BME280;20471;49.680;20.074;2023-02-04T00:05:52;96359.73;;;1.93;83.27
34205;BME280;20471;49.680;20.074;2023-02-04T00:08:20;96361.89;;;1.92;83.02
34205;BME280;20471;49.680;20.074;2023-02-04T00:10:48;96360.00;;;1.91;83.17
34205;BME280;20471;49.680;20.074;2023-02-04T00:13:16;96354.81;;;1.93;83.23
34205;BME280;20471;49.680;20.074;2023-02-04T00:15:44;96357.16;;;1.96;83.22
34205;BME280;20471;49.680;20.074;2023-02-04T00:18:12;96357.11;;;1.93;83.26
34205;BME280;20471;49.680;20.074;2023-02-04T00:20:40;96352.23;;;1.92;83.17
34205;BME280;20471;49.680;20.074;2023-02-04T00:23:08;96352.04;;;1.93;83.27
34205;BME280;20471;49.680;20.074;2023-02-04T00:25:37;96348.27;;;1.94;83.29
34205;BME280;20471;49.680;20.074;2023-02-04T00:28:05;96345.83;;;1.98;83.26
34205;BME280;20471;49.680;20.074;2023-02-04T00:30:33;96353.54;;;1.99;83.39
34205;BME280;20471;49.680;20.074;2023-02-04T00:33:01;96347.45;;;2.00;83.39
34205;BME280;20471;49.680;20.074;2023-02-04T00:35:29;96342.83;;;2.03;83.29
34205;BME280;20471;49.680;20.074;2023-02-04T00:37:58;96338.41;;;2.07;83.39
34205;BME280;20471;49.680;20.074;2023-02-04T00:40:26;96338.33;;;2.09;83.40
34205;BME280;20471;49.680;20.074;2023-02-04T00:42:54;96337.55;;;2.09;83.27
34205;BME280;20471;49.680;20.074;2023-02-04T00:45:22;96335.05;;;2.12;83.16
34205;BME280;20471;49.680;20.074;2023-02-04T00:47:50;96331.47;;;2.16;83.16
34205;BME280;20471;49.680;20.074;2023-02-04T00:50:18;96327.29;;;2.18;83.07
34205;BME280;20471;49.680;20.074;2023-02-04T00:52:46;96327.98;;;2.21;83.12
34205;BME280;20471;49.680;20.074;2023-02-04T00:55:14;96327.02;;;2.24;82.99
34205;BME280;20471;49.680;20.074;2023-02-04T00:57:44;96332.03;;;2.28;82.92
34205;BME280;20471;49.680;20.074;2023-02-04T01:00:14;96329.98;;;2.32;82.94
34205;BME280;20471;49.680;20.074;2023-02-04T01:02:43;96328.21;;;2.35;82.95
34205;BME280;20471;49.680;20.074;2023-02-04T01:05:11;96331.28;;;2.38;82.80
34205;BME280;20471;49.680;20.074;2023-02-04T01:07:39;96326.91;;;2.38;82.68
34205;BME280;20471;49.680;20.074;2023-02-04T01:10:07;96326.55;;;2.38;82.65
34205;BME280;20471;49.680;20.074;2023-02-04T01:12:35;96319.86;;;2.38;82.53
34205;BME280;20471;49.680;20.074;2023-02-04T01:15:04;96316.59;;;2.39;82.58
34205;BME280;20471;49.680;20.074;2023-02-04T01:17:32;96316.84;;;2.39;82.54
34205;BME280;20471;49.680;20.074;2023-02-04T01:20:00;96308.69;;;2.39;82.53
34205;BME280;20471;49.680;20.074;2023-02-04T01:22:28;96312.41;;;2.39;82.57
34205;BME280;20471;49.680;20.074;2023-02-04T01:24:56;96308.30;;;2.38;82.42
34205;BME280;20471;49.680;20.074;2023-02-04T01:27:24;96307.56;;;2.38;82.50
34205;BME280;20471;49.680;20.074;2023-02-04T01:29:53;96306.23;;;2.36;82.35
34205;BME280;20471;49.680;20.074;2023-02-04T01:32:21;96297.27;;;2.30;82.23
34205;BME280;20471;49.680;20.074;2023-02-04T01:34:49;96291.64;;;2.28;82.39
34205;BME280;20471;49.680;20.074;2023-02-04T01:37:17;96289.16;;;2.27;82.28
34205;BME280;20471;49.680;20.074;2023-02-04T01:39:45;96289.33;;;2.25;82.40
34205;BME280;20471;49.680;20.074;2023-02-04T01:42:13;96282.21;;;2.22;82.30
34205;BME280;20471;49.680;20.074;2023-02-04T01:44:41;96283.54;;;2.20;82.34
34205;BME280;20471;49.680;20.074;2023-02-04T01:47:09;96282.49;;;2.18;82.42
34205;BME280;20471;49.680;20.074;2023-02-04T01:49:38;96279.79;;;2.17;82.40
34205;BME280;20471;49.680;20.074;2023-02-04T01:52:06;96274.70;;;2.18;82.52
34205;BME280;20471;49.680;20.074;2023-02-04T01:54:36;96266.46;;;2.16;82.38
34205;BME280;20471;49.680;20.074;2023-02-04T01:57:05;96266.50;;;2.13;82.39
34205;BME280;20471;49.680;20.074;2023-02-04T01:59:36;96267.71;;;2.14;82.45
34205;BME280;20471;49.680;20.074;2023-02-04T02:02:40;96265.04;;;2.16;82.61
34205;BME280;20471;49.680;20.074;2023-02-04T02:05:12;96260.77;;;2.13;82.40
34205;BME280;20471;49.680;20.074;2023-02-04T02:07:41;96261.92;;;2.08;82.39
34205;BME280;20471;49.680;20.074;2023-02-04T02:10:11;96261.30;;;2.03;82.41
34205;BME280;20471;49.680;20.074;2023-02-04T02:12:40;96258.70;;;2.01;82.60
34205;BME280;20471;49.680;20.074;2023-02-04T02:15:10;96262.59;;;2.04;82.54
34205;BME280;20471;49.680;20.074;2023-02-04T02:17:39;96263.17;;;2.07;82.63
34205;BME280;20471;49.680;20.074;2023-02-04T02:20:10;96263.59;;;2.07;82.77
34205;BME280;20471;49.680;20.074;2023-02-04T02:25:22;96267.66;;;2.00;82.72
34205;BME280;20471;49.680;20.074;2023-02-04T02:27:50;96256.02;;;1.97;82.58
34205;BME280;20471;49.680;20.074;2023-02-04T02:30:18;96264.69;;;1.99;82.77
34205;BME280;20471;49.680;20.074;2023-02-04T02:32:47;96257.66;;;2.03;82.74
34205;BME280;20471;49.680;20.074;2023-02-04T02:35:17;96266.44;;;2.05;82.86
34205;BME280;20471;49.680;20.074;2023-02-04T02:37:45;96256.10;;;2.02;82.80
34205;BME280;20471;49.680;20.074;2023-02-04T02:40:13;96261.04;;;2.01;82.79
34205;BME280;20471;49.680;20.074;2023-02-04T02:42:42;96262.95;;;2.00;82.90
34205;BME280;20471;49.680;20.074;2023-02-04T02:45:20;96268.05;;;2.02;82.85
34205;BME280;20471;49.680;20.074;2023-02-04T02:47:49;96268.45;;;2.01;82.89
34205;BME280;20471;49.680;20.074;2023-02-04T02:50:23;96265.05;;;1.99;82.67
34205;BME280;20471;49.680;20.074;2023-02-04T02:52:52;96262.73;;;1.99;82.73
34205;BME280;20471;49.680;20.074;2023-02-04T02:55:24;96261.14;;;2.00;82.85
34205;BME280;20471;49.680;20.074;2023-02-04T02:57:55;96262.89;;;2.02;82.78
34205;BME280;20471;49.680;20.074;2023-02-04T03:00:26;96262.63;;;2.01;82.89
34205;BME280;20471;49.680;20.074;2023-02-04T03:05:30;96264.43;;;2.04;82.69
34205;BME280;20471;49.680;20.074;2023-02-04T03:07:59;96263.33;;;2.04;82.75
34205;BME280;20471;49.680;20.074;2023-02-04T03:10:27;96266.12;;;2.02;82.79
34205;BME280;20471;49.680;20.074;2023-02-04T03:12:56;96271.38;;;2.02;82.71
34205;BME280;20471;49.680;20.074;2023-02-04T03:15:25;96274.66;;;2.03;82.56
34205;BME280;20471;49.680;20.074;2023-02-04T03:17:53;96280.39;;;2.02;82.56
34205;BME280;20471;49.680;20.074;2023-02-04T03:20:27;96292.77;;;1.98;82.61
34205;BME280;20471;49.680;20.074;2023-02-04T03:22:56;96296.82;;;1.96;82.67
34205;BME280;20471;49.680;20.074;2023-02-04T03:25:25;96301.83;;;1.94;82.59
34205;BME280;20471;49.680;20.074;2023-02-04T03:27:57;96306.05;;;1.88;82.52
34205;BME280;20471;49.680;20.074;2023-02-04T03:30:26;96310.42;;;1.80;82.35
34205;BME280;20471;49.680;20.074;2023-02-04T03:32:54;96317.60;;;1.70;82.37
34205;BME280;20471;49.680;20.074;2023-02-04T03:35:22;96320.64;;;1.63;82.32
34205;BME280;20471;49.680;20.074;2023-02-04T03:37:50;96324.94;;;1.58;82.59
34205;BME280;20471;49.680;20.074;2023-02-04T03:40:19;96323.31;;;1.52;82.52
34205;BME280;20471;49.680;20.074;2023-02-04T03:42:49;96323.61;;;1.48;82.53
34205;BME280;20471;49.680;20.074;2023-02-04T03:45:17;96332.91;;;1.41;82.54
34205;BME280;20471;49.680;20.074;2023-02-04T03:47:45;96332.34;;;1.39;82.67
34205;BME280;20471;49.680;20.074;2023-02-04T03:50:14;96332.11;;;1.38;82.72
34205;BME280;20471;49.680;20.074;2023-02-04T03:52:42;96334.91;;;1.31;82.71
34205;BME280;20471;49.680;20.074;2023-02-04T03:55:11;96339.62;;;1.24;82.92
34205;BME280;20471;49.680;20.074;2023-02-04T03:57:39;96344.17;;;1.18;82.95
34205;BME280;20471;49.680;20.074;2023-02-04T04:00:08;96348.41;;;1.14;82.99
34205;BME280;20471;49.680;20.074;2023-02-04T04:02:36;96357.09;;;1.11;83.00
34205;BME280;20471;49.680;20.074;2023-02-04T04:05:06;96365.38;;;1.08;83.07
34205;BME280;20471;49.680;20.074;2023-02-04T04:07:34;96369.02;;;1.06;83.17
34205;BME280;20471;49.680;20.074;2023-02-04T04:10:03;96380.98;;;1.02;83.06
34205;BME280;20471;49.680;20.074;2023-02-04T04:12:31;96386.30;;;0.97;83.27
34205;BME280;20471;49.680;20.074;2023-02-04T04:14:59;96389.34;;;0.98;83.40
34205;BME280;20471;49.680;20.074;2023-02-04T04:17:27;96388.92;;;0.93;83.42
34205;BME280;20471;49.680;20.074;2023-02-04T04:19:55;96388.83;;;0.94;83.52
34205;BME280;20471;49.680;20.074;2023-02-04T04:22:23;96390.04;;;0.91;83.66
34205;BME280;20471;49.680;20.074;2023-02-04T04:24:52;96397.02;;;0.87;83.52
34205;BME280;20471;49.680;20.074;2023-02-04T04:27:20;96400.79;;;0.85;83.43
34205;BME280;20471;49.680;20.074;2023-02-04T04:29:48;96404.03;;;0.83;83.36
34205;BME280;20471;49.680;20.074;2023-02-04T04:32:16;96405.18;;;0.80;83.38
34205;BME280;20471;49.680;20.074;2023-02-04T04:34:44;96413.64;;;0.74;83.58
34205;BME280;20471;49.680;20.074;2023-02-04T04:37:12;96422.17;;;0.73;83.55
34205;BME280;20471;49.680;20.074;2023-02-04T04:39:40;96431.33;;;0.77;83.69
34205;BME280;20471;49.680;20.074;2023-02-04T04:42:08;96439.21;;;0.82;83.93
34205;BME280;20471;49.680;20.074;2023-02-04T04:44:36;96445.61;;;0.87;83.70
34205;BME280;20471;49.680;20.074;2023-02-04T04:47:04;96448.01;;;0.86;83.70
34205;BME280;20471;49.680;20.074;2023-02-04T04:49:33;96452.14;;;0.86;83.75
34205;BME280;20471;49.680;20.074;2023-02-04T04:52:01;96455.34;;;0.84;83.72
34205;BME280;20471;49.680;20.074;2023-02-04T04:54:29;96464.59;;;0.82;83.74
34205;BME280;20471;49.680;20.074;2023-02-04T04:56:57;96470.64;;;0.84;83.69
34205;BME280;20471;49.680;20.074;2023-02-04T04:59:25;96476.55;;;0.78;83.68
34205;BME280;20471;49.680;20.074;2023-02-04T05:01:54;96486.48;;;0.72;83.72
34205;BME280;20471;49.680;20.074;2023-02-04T05:04:22;96490.27;;;0.71;83.83
34205;BME280;20471;49.680;20.074;2023-02-04T05:06:50;96499.43;;;0.72;83.85
34205;BME280;20471;49.680;20.074;2023-02-04T05:09:18;96504.39;;;0.73;83.90
34205;BME280;20471;49.680;20.074;2023-02-04T05:11:46;96513.38;;;0.70;83.83
34205;BME280;20471;49.680;20.074;2023-02-04T05:14:14;96520.23;;;0.71;83.90
34205;BME280;20471;49.680;20.074;2023-02-04T05:16:42;96526.52;;;0.72;83.96
34205;BME280;20471;49.680;20.074;2023-02-04T05:19:10;96558.27;;;0.71;83.85
34205;BME280;20471;49.680;20.074;2023-02-04T05:21:38;96594.95;;;0.63;83.89
34205;BME280;20471;49.680;20.074;2023-02-04T05:24:06;96598.35;;;0.50;83.87
34205;BME280;20471;49.680;20.074;2023-02-04T05:26:34;96604.70;;;0.37;83.59
34205;BME280;20471;49.680;20.074;2023-02-04T05:29:02;96621.70;;;0.30;83.53
34205;BME280;20471;49.680;20.074;2023-02-04T05:31:31;96638.42;;;0.25;83.44
34205;BME280;20471;49.680;20.074;2023-02-04T05:33:59;96658.95;;;0.17;83.43
34205;BME280;20471;49.680;20.074;2023-02-04T05:36:27;96678.61;;;0.13;83.49
34205;BME280;20471;49.680;20.074;2023-02-04T05:38:55;96699.74;;;0.06;83.48
34205;BME280;20471;49.680;20.074;2023-02-04T05:41:23;96714.90;;;-0.07;83.40
34205;BME280;20471;49.680;20.074;2023-02-04T05:43:51;96727.80;;;-0.18;83.28
34205;BME280;20471;49.680;20.074;2023-02-04T05:46:20;96741.41;;;-0.23;83.38
34205;BME280;20471;49.680;20.074;2023-02-04T05:48:48;96756.79;;;-0.28;83.43
34205;BME280;20471;49.680;20.074;2023-02-04T05:51:16;96775.13;;;-0.40;83.41
34205;BME280;20471;49.680;20.074;2023-02-04T05:53:44;96804.71;;;-0.47;83.20
34205;BME280;20471;49.680;20.074;2023-02-04T05:56:12;96817.35;;;-0.57;83.06
34205;BME280;20471;49.680;20.074;2023-02-04T05:58:40;96832.10;;;-0.67;83.01
34205;BME280;20471;49.680;20.074;2023-02-04T06:01:08;96843.95;;;-0.78;82.99
34205;BME280;20471;49.680;20.074;2023-02-04T06:03:36;96859.45;;;-0.88;83.19
34205;BME280;20471;49.680;20.074;2023-02-04T06:06:04;96875.48;;;-0.96;83.14
34205;BME280;20471;49.680;20.074;2023-02-04T06:08:33;96900.90;;;-1.01;83.16
34205;BME280;20471;49.680;20.074;2023-02-04T06:11:01;96915.35;;;-1.03;83.18
34205;BME280;20471;49.680;20.074;2023-02-04T06:13:29;96937.17;;;-1.02;83.21
34205;BME280;20471;49.680;20.074;2023-02-04T06:15:59;96940.57;;;-1.01;83.21
34205;BME280;20471;49.680;20.074;2023-02-04T06:18:27;96959.16;;;-1.03;83.09
34205;BME280;20471;49.680;20.074;2023-02-04T06:20:55;96974.70;;;-1.05;83.01
34205;BME280;20471;49.680;20.074;2023-02-04T06:23:23;96988.44;;;-1.12;82.85
34205;BME280;20471;49.680;20.074;2023-02-04T06:25:51;97004.30;;;-1.15;82.81
34205;BME280;20471;49.680;20.074;2023-02-04T06:28:19;97023.45;;;-1.14;82.96
34205;BME280;20471;49.680;20.074;2023-02-04T06:30:47;97036.73;;;-1.13;83.04
34205;BME280;20471;49.680;20.074;2023-02-04T06:33:15;97048.77;;;-1.13;82.92
34205;BME280;20471;49.680;20.074;2023-02-04T06:35:43;97057.12;;;-1.12;82.92
34205;BME280;20471;49.680;20.074;2023-02-04T06:38:11;97071.06;;;-1.12;82.96
34205;BME280;20471;49.680;20.074;2023-02-04T06:40:40;97084.48;;;-1.15;82.90
34205;BME280;20471;49.680;20.074;2023-02-04T06:43:08;97101.84;;;-1.22;82.80
34205;BME280;20471;49.680;20.074;2023-02-04T06:45:36;97110.23;;;-1.26;82.80
34205;BME280;20471;49.680;20.074;2023-02-04T06:48:04;97122.44;;;-1.28;82.83
34205;BME280;20471;49.680;20.074;2023-02-04T06:50:32;97132.45;;;-1.35;82.75
34205;BME280;20471;49.680;20.074;2023-02-04T06:53:00;97142.02;;;-1.35;82.97
34205;BME280;20471;49.680;20.074;2023-02-04T06:55:29;97157.68;;;-1.35;82.92
34205;BME280;20471;49.680;20.074;2023-02-04T06:57:57;97172.21;;;-1.41;82.95
34205;BME280;20471;49.680;20.074;2023-02-04T07:00:25;97184.38;;;-1.47;83.05
34205;BME280;20471;49.680;20.074;2023-02-04T07:02:53;97195.50;;;-1.47;82.90
34205;BME280;20471;49.680;20.074;2023-02-04T07:05:22;97207.98;;;-1.48;82.80
34205;BME280;20471;49.680;20.074;2023-02-04T07:07:50;97227.15;;;-1.51;82.98
34205;BME280;20471;49.680;20.074;2023-02-04T07:10:18;97240.41;;;-1.51;83.10
34205;BME280;20471;49.680;20.074;2023-02-04T07:12:47;97250.08;;;-1.51;82.98
34205;BME280;20471;49.680;20.074;2023-02-04T07:15:15;97254.66;;;-1.57;82.89
34205;BME280;20471;49.680;20.074;2023-02-04T07:17:44;97278.30;;;-1.58;82.95
34205;BME280;20471;49.680;20.074;2023-02-04T07:20:12;97286.56;;;-1.58;82.96
34205;BME280;20471;49.680;20.074;2023-02-04T07:22:40;97304.77;;;-1.58;82.90
34205;BME280;20471;49.680;20.074;2023-02-04T07:25:09;97317.44;;;-1.60;82.77
34205;BME280;20471;49.680;20.074;2023-02-04T07:27:40;97338.68;;;-1.57;82.83
34205;BME280;20471;49.680;20.074;2023-02-04T07:30:08;97354.17;;;-1.55;82.97
34205;BME280;20471;49.680;20.074;2023-02-04T07:32:37;97368.95;;;-1.54;82.92
34205;BME280;20471;49.680;20.074;2023-02-04T07:35:05;97380.73;;;-1.57;82.68
34205;BME280;20471;49.680;20.074;2023-02-04T07:37:34;97392.52;;;-1.63;82.61
34205;BME280;20471;49.680;20.074;2023-02-04T07:40:03;97414.33;;;-1.62;82.75
34205;BME280;20471;49.680;20.074;2023-02-04T07:42:31;97426.37;;;-1.62;82.55
34205;BME280;20471;49.680;20.074;2023-02-04T07:44:59;97437.38;;;-1.65;82.36
34205;BME280;20471;49.680;20.074;2023-02-04T07:47:27;97441.08;;;-1.67;82.29
34205;BME280;20471;49.680;20.074;2023-02-04T07:49:55;97452.81;;;-1.70;82.21
34205;BME280;20471;49.680;20.074;2023-02-04T07:52:24;97462.82;;;-1.69;82.30
34205;BME280;20471;49.680;20.074;2023-02-04T07:54:52;97473.48;;;-1.70;82.25
34205;BME280;20471;49.680;20.074;2023-02-04T07:57:20;97487.77;;;-1.79;82.19
34205;BME280;20471;49.680;20.074;2023-02-04T07:59:48;97495.30;;;-1.91;82.21
34205;BME280;20471;49.680;20.074;2023-02-04T08:02:16;97517.80;;;-1.92;82.29
34205;BME280;20471;49.680;20.074;2023-02-04T08:04:44;97525.20;;;-1.85;82.32
34205;BME280;20471;49.680;20.074;2023-02-04T08:07:13;97531.65;;;-1.80;82.45
34205;BME280;20471;49.680;20.074;2023-02-04T08:09:41;97550.73;;;-1.74;82.42
34205;BME280;20471;49.680;20.074;2023-02-04T08:12:09;97554.86;;;-1.75;82.23
34205;BME280;20471;49.680;20.074;2023-02-04T08:14:37;97557.52;;;-1.75;82.18
34205;BME280;20471;49.680;20.074;2023-02-04T08:17:05;97563.95;;;-1.76;82.08
34205;BME280;20471;49.680;20.074;2023-02-04T08:19:33;97573.08;;;-1.78;82.13
34205;BME280;20471;49.680;20.074;2023-02-04T08:22:01;97575.69;;;-1.84;82.02
34205;BME280;20471;49.680;20.074;2023-02-04T08:24:30;97573.77;;;-1.88;81.89
34205;BME280;20471;49.680;20.074;2023-02-04T08:26:58;97594.45;;;-1.99;82.05
34205;BME280;20471;49.680;20.074;2023-02-04T08:29:26;97597.48;;;-2.08;82.18
34205;BME280;20471;49.680;20.074;2023-02-04T08:31:54;97603.11;;;-2.11;82.32
34205;BME280;20471;49.680;20.074;2023-02-04T08:34:22;97617.67;;;-2.11;82.51
34205;BME280;20471;49.680;20.074;2023-02-04T08:36:50;97621.91;;;-2.11;82.53
34205;BME280;20471;49.680;20.074;2023-02-04T08:39:18;97630.37;;;-2.08;82.48
34205;BME280;20471;49.680;20.074;2023-02-04T08:41:46;97633.88;;;-2.08;82.41
34205;BME280;20471;49.680;20.074;2023-02-04T08:44:14;97637.80;;;-2.09;82.22
34205;BME280;20471;49.680;20.074;2023-02-04T08:46:43;97644.75;;;-2.07;82.06
34205;BME280;20471;49.680;20.074;2023-02-04T08:49:11;97651.98;;;-2.07;81.98
34205;BME280;20471;49.680;20.074;2023-02-04T08:51:39;97656.10;;;-2.08;81.69
34205;BME280;20471;49.680;20.074;2023-02-04T08:54:07;97661.42;;;-2.11;81.56
34205;BME280;20471;49.680;20.074;2023-02-04T08:56:35;97663.89;;;-2.11;81.45
34205;BME280;20471;49.680;20.074;2023-02-04T08:59:03;97680.48;;;-2.09;81.28
34205;BME280;20471;49.680;20.074;2023-02-04T09:01:31;97683.48;;;-2.07;81.18
34205;BME280;20471;49.680;20.074;2023-02-04T09:03:59;97688.42;;;-2.03;81.09
34205;BME280;20471;49.680;20.074;2023-02-04T09:06:27;97697.05;;;-2.03;80.81
34205;BME280;20471;49.680;20.074;2023-02-04T09:08:55;97710.29;;;-2.05;80.64
34205;BME280;20471;49.680;20.074;2023-02-04T09:11:23;97725.42;;;-2.06;80.53
34205;BME280;20471;49.680;20.074;2023-02-04T09:13:52;97742.00;;;-2.02;80.58
34205;BME280;20471;49.680;20.074;2023-02-04T09:16:22;97751.50;;;-1.98;80.66
34205;BME280;20471;49.680;20.074;2023-02-04T09:18:50;97757.46;;;-1.97;80.43
34205;BME280;20471;49.680;20.074;2023-02-04T09:21:18;97769.64;;;-1.93;80.34
34205;BME280;20471;49.680;20.074;2023-02-04T09:23:46;97772.17;;;-1.86;80.61
34205;BME280;20471;49.680;20.074;2023-02-04T09:26:15;97785.36;;;-1.80;80.70
34205;BME280;20471;49.680;20.074;2023-02-04T09:28:43;97793.59;;;-1.77;80.38
34205;BME280;20471;49.680;20.074;2023-02-04T09:31:11;97789.05;;;-1.76;80.35
34205;BME280;20471;49.680;20.074;2023-02-04T09:33:39;97798.89;;;-1.75;79.76
34205;BME280;20471;49.680;20.074;2023-02-04T09:36:08;97803.78;;;-1.79;79.61
34205;BME280;20471;49.680;20.074;2023-02-04T09:38:36;97812.73;;;-1.81;79.73
34205;BME280;20471;49.680;20.074;2023-02-04T09:48:26;97830.23;;;-1.83;79.00
34205;BME280;20471;49.680;20.074;2023-02-04T09:51:02;97839.80;;;-1.86;79.11
34205;BME280;20471;49.680;20.074;2023-02-04T09:53:31;97846.34;;;-1.84;79.33
34205;BME280;20471;49.680;20.074;2023-02-04T09:56:01;97849.92;;;-1.80;79.27
34205;BME280;20471;49.680;20.074;2023-02-04T09:58:32;97851.72;;;-1.78;79.05
34205;BME280;20471;49.680;20.074;2023-02-04T10:01:11;97854.13;;;-1.78;78.70
34205;BME280;20471;49.680;20.074;2023-02-04T10:03:43;97860.02;;;-1.76;78.64
34205;BME280;20471;49.680;20.074;2023-02-04T10:06:22;97865.89;;;-1.75;78.78
34205;BME280;20471;49.680;20.074;2023-02-04T10:08:51;97872.31;;;-1.78;78.51
34205;BME280;20471;49.680;20.074;2023-02-04T10:11:21;97873.91;;;-1.81;78.52
34205;BME280;20471;49.680;20.074;2023-02-04T10:13:52;97876.02;;;-1.78;78.69
34205;BME280;20471;49.680;20.074;2023-02-04T10:16:30;97874.63;;;-1.73;79.00
34205;BME280;20471;49.680;20.074;2023-02-04T10:19:02;97878.40;;;-1.70;78.75
34205;BME280;20471;49.680;20.074;2023-02-04T10:21:34;97886.44;;;-1.73;78.43
34205;BME280;20471;49.680;20.074;2023-02-04T10:24:17;97887.66;;;-1.85;78.22
34205;BME280;20471;49.680;20.074;2023-02-04T10:26:47;97887.08;;;-1.89;78.23
34205;BME280;20471;49.680;20.074;2023-02-04T10:29:18;97892.85;;;-1.90;78.36
34205;BME280;20471;49.680;20.074;2023-02-04T10:31:48;97889.20;;;-1.91;78.41
34205;BME280;20471;49.680;20.074;2023-02-04T10:34:30;97899.66;;;-1.89;78.54
34205;BME280;20471;49.680;20.074;2023-02-04T10:37:11;97898.20;;;-1.86;78.55
34205;BME280;20471;49.680;20.074;2023-02-04T10:39:42;97896.00;;;-1.81;78.51
34205;BME280;20471;49.680;20.074;2023-02-04T10:42:24;97902.20;;;-1.79;78.28
34205;BME280;20471;49.680;20.074;2023-02-04T10:44:53;97896.64;;;-1.87;78.16
34205;BME280;20471;49.680;20.074;2023-02-04T10:47:27;97896.54;;;-1.83;78.48
34205;BME280;20471;49.680;20.074;2023-02-04T10:50:03;97904.15;;;-1.74;78.56
34205;BME280;20471;49.680;20.074;2023-02-04T10:52:38;97903.84;;;-1.77;78.06
34205;BME280;20471;49.680;20.074;2023-02-04T10:55:15;97900.13;;;-1.79;77.81
34205;BME280;20471;49.680;20.074;2023-02-04T10:57:47;97903.16;;;-1.77;77.88
34205;BME280;20471;49.680;20.074;2023-02-04T11:00:21;97904.95;;;-1.80;77.76
34205;BME280;20471;49.680;20.074;2023-02-04T11:03:00;97910.31;;;-1.81;77.92
34205;BME280;20471;49.680;20.074;2023-02-04T11:05:34;97910.14;;;-1.76;78.20
34205;BME280;20471;49.680;20.074;2023-02-04T11:10:50;97927.54;;;-1.89;78.29
34205;BME280;20471;49.680;20.074;2023-02-04T11:13:38;97928.44;;;-2.01;78.30
34205;BME280;20471;49.680;20.074;2023-02-04T11:18:50;97914.90;;;-2.03;78.31
34205;BME280;20471;49.680;20.074;2023-02-04T11:21:39;97928.24;;;-2.02;78.41
34205;BME280;20471;49.680;20.074;2023-02-04T11:26:42;97936.07;;;-2.26;78.69
34205;BME280;20471;49.680;20.074;2023-02-04T11:29:33;97938.98;;;-2.29;78.75
34205;BME280;20471;49.680;20.074;2023-02-04T11:32:11;97939.06;;;-2.25;78.76
34205;BME280;20471;49.680;20.074;2023-02-04T11:34:53;97943.55;;;-2.15;78.91
34205;BME280;20471;49.680;20.074;2023-02-04T11:37:38;97946.70;;;-2.02;78.73
34205;BME280;20471;49.680;20.074;2023-02-04T11:40:20;97949.50;;;-1.95;78.46
34205;BME280;20471;49.680;20.074;2023-02-04T11:42:55;97947.58;;;-1.95;78.16
34205;BME280;20471;49.680;20.074;2023-02-04T11:45:30;97954.27;;;-1.99;77.93
34205;BME280;20471;49.680;20.074;2023-02-04T11:48:01;97962.19;;;-1.90;77.90
34205;BME280;20471;49.680;20.074;2023-02-04T11:50:33;97964.00;;;-1.59;77.88
34205;BME280;20471;49.680;20.074;2023-02-04T11:53:04;97960.89;;;-1.32;77.71
34205;BME280;20471;49.680;20.074;2023-02-04T11:55:35;97968.95;;;-1.29;76.98
34205;BME280;20471;49.680;20.074;2023-02-04T11:58:04;97975.70;;;-1.32;76.75
34205;BME280;20471;49.680;20.074;2023-02-04T12:00:35;97981.89;;;-1.30;76.46
34205;BME280;20471;49.680;20.074;2023-02-04T12:03:44;97991.20;;;-1.12;76.39
34205;BME280;20471;49.680;20.074;2023-02-04T12:06:04;97995.80;;;-0.95;76.07
34205;BME280;20471;49.680;20.074;2023-02-04T12:08:34;97987.20;;;-0.95;75.33
34205;BME280;20471;49.680;20.074;2023-02-04T12:11:06;97987.93;;;-0.74;75.30
34205;BME280;20471;49.680;20.074;2023-02-04T12:13:52;97988.52;;;-0.60;75.16
34205;BME280;20471;49.680;20.074;2023-02-04T12:16:20;97991.35;;;-0.62;74.88
34205;BME280;20471;49.680;20.074;2023-02-04T12:18:49;97992.38;;;-0.77;74.69
34205;BME280;20471;49.680;20.074;2023-02-04T12:21:18;97999.13;;;-1.09;73.87
34205;BME280;20471;49.680;20.074;2023-02-04T12:23:46;98010.86;;;-1.34;74.23
34205;BME280;20471;49.680;20.074;2023-02-04T12:26:14;98009.36;;;-1.48;74.37
34205;BME280;20471;49.680;20.074;2023-02-04T12:28:42;98011.31;;;-1.51;74.35
34205;BME280;20471;49.680;20.074;2023-02-04T12:31:10;98013.50;;;-1.52;73.92
34205;BME280;20471;49.680;20.074;2023-02-04T12:33:38;98014.14;;;-1.55;73.92
34205;BME280;20471;49.680;20.074;2023-02-04T12:36:07;98013.25;;;-1.59;73.98
34205;BME280;20471;49.680;20.074;2023-02-04T12:38:35;98022.08;;;-1.62;74.15
34205;BME280;20471;49.680;20.074;2023-02-04T12:41:03;98025.05;;;-1.64;74.17
34205;BME280;20471;49.680;20.074;2023-02-04T12:43:32;98026.92;;;-1.63;74.27
34205;BME280;20471;49.680;20.074;2023-02-04T12:46:00;98036.51;;;-1.64;74.01
34205;BME280;20471;49.680;20.074;2023-02-04T12:48:28;98040.71;;;-1.65;73.73
34205;BME280;20471;49.680;20.074;2023-02-04T12:50:56;98054.25;;;-1.67;73.33
34205;BME280;20471;49.680;20.074;2023-02-04T12:53:24;98059.12;;;-1.70;73.02
34205;BME280;20471;49.680;20.074;2023-02-04T12:55:52;98059.67;;;-1.78;73.09
34205;BME280;20471;49.680;20.074;2023-02-04T12:58:20;98064.38;;;-1.86;72.67
34205;BME280;20471;49.680;20.074;2023-02-04T13:00:48;98068.02;;;-1.97;72.26
34205;BME280;20471;49.680;20.074;2023-02-04T13:03:17;98074.23;;;-2.02;72.60
34205;BME280;20471;49.680;20.074;2023-02-04T13:05:45;98083.24;;;-2.09;72.46
34205;BME280;20471;49.680;20.074;2023-02-04T13:08:13;98084.65;;;-2.18;72.44
34205;BME280;20471;49.680;20.074;2023-02-04T13:10:41;98085.69;;;-2.25;72.64
34205;BME280;20471;49.680;20.074;2023-02-04T13:13:09;98088.05;;;-2.21;72.73
34205;BME280;20471;49.680;20.074;2023-02-04T13:15:37;98087.04;;;-2.17;72.81
34205;BME280;20471;49.680;20.074;2023-02-04T13:18:05;98104.52;;;-2.08;72.90
34205;BME280;20471;49.680;20.074;2023-02-04T13:20:34;98108.44;;;-2.06;72.91
34205;BME280;20471;49.680;20.074;2023-02-04T13:23:02;98105.36;;;-2.07;72.67
34205;BME280;20471;49.680;20.074;2023-02-04T13:25:31;98097.95;;;-2.10;72.34
34205;BME280;20471;49.680;20.074;2023-02-04T13:27:59;98104.88;;;-2.17;72.47